sensor_id;sensor_type;location;lat;lon;timestamp;P1;durP1;ratioP1;P2;durP2;ratioP2
77955;SDS011;67152;36.266;32.294;2024-01-10T00:00:33;9.27;;;1.67;;
77955;SDS011;67152;36.266;32.294;2024-01-10T00:02:59;4.57;;;0.80;;
77955;SDS011;67152;36.266;32.294;2024-01-10T00:05:25;10.57;;;4.57;;
77955;SDS011;67152;36.266;32.294;2024-01-10T00:07:52;4.15;;;1.35;;
77955;SDS011;67152;36.266;32.294;2024-01-10T00:10:18;10.07;;;1.38;;
77955;SDS011;67152;36.266;32.294;2024-01-10T00:12:44;2.50;;;0.73;;
77955;SDS011;67152;36.266;32.294;2024-01-10T00:15:11;4.38;;;1.30;;
77955;SDS011;67152;36.266;32.294;2024-01-10T00:17:39;10.80;;;1.73;;
77955;SDS011;67152;36.266;32.294;2024-01-10T00:22:32;7.47;;;1.87;;
77955;SDS011;67152;36.266;32.294;2024-01-10T00:24:59;5.28;;;0.70;;
77955;SDS011;67152;36.266;32.294;2024-01-10T00:27:25;6.97;;;1.83;;
77955;SDS011;67152;36.266;32.294;2024-01-10T00:29:51;9.05;;;1.45;;
77955;SDS011;67152;36.266;32.294;2024-01-10T00:32:18;11.43;;;1.75;;
77955;SDS011;67152;36.266;32.294;2024-01-10T00:34:44;8.45;;;1.02;;
77955;SDS011;67152;36.266;32.294;2024-01-10T00:37:30;7.78;;;1.40;;
77955;SDS011;67152;36.266;32.294;2024-01-10T00:39:56;7.20;;;1.75;;
77955;SDS011;67152;36.266;32.294;2024-01-10T00:42:23;4.32;;;1.15;;
77955;SDS011;67152;36.266;32.294;2024-01-10T00:44:49;5.18;;;1.60;;
77955;SDS011;67152;36.266;32.294;2024-01-10T00:47:15;3.47;;;0.73;;
77955;SDS011;67152;36.266;32.294;2024-01-10T00:49:42;6.55;;;1.58;;
77955;SDS011;67152;36.266;32.294;2024-01-10T00:52:08;9.35;;;1.55;;
77955;SDS011;67152;36.266;32.294;2024-01-10T00:54:34;4.78;;;1.13;;
77955;SDS011;67152;36.266;32.294;2024-01-10T00:57:01;9.93;;;2.28;;
77955;SDS011;67152;36.266;32.294;2024-01-10T00:59:27;5.43;;;1.05;;
77955;SDS011;67152;36.266;32.294;2024-01-10T01:01:53;8.20;;;1.20;;
77955;SDS011;67152;36.266;32.294;2024-01-10T01:04:20;7.55;;;1.70;;
77955;SDS011;67152;36.266;32.294;2024-01-10T01:06:46;9.73;;;1.33;;
77955;SDS011;67152;36.266;32.294;2024-01-10T01:09:13;4.32;;;1.42;;
77955;SDS011;67152;36.266;32.294;2024-01-10T01:11:41;9.13;;;1.70;;
77955;SDS011;67152;36.266;32.294;2024-01-10T01:14:07;4.25;;;0.98;;
77955;SDS011;67152;36.266;32.294;2024-01-10T01:16:33;6.55;;;1.40;;
77955;SDS011;67152;36.266;32.294;2024-01-10T01:19:00;12.98;;;1.50;;
77955;SDS011;67152;36.266;32.294;2024-01-10T01:21:26;9.75;;;1.42;;
77955;SDS011;67152;36.266;32.294;2024-01-10T01:23:53;3.75;;;0.88;;
77955;SDS011;67152;36.266;32.294;2024-01-10T01:28:46;8.13;;;1.08;;
77955;SDS011;67152;36.266;32.294;2024-01-10T01:31:12;4.90;;;0.63;;
77955;SDS011;67152;36.266;32.294;2024-01-10T01:33:39;3.42;;;0.70;;
77955;SDS011;67152;36.266;32.294;2024-01-10T01:36:05;10.75;;;2.03;;
77955;SDS011;67152;36.266;32.294;2024-01-10T01:38:32;5.32;;;1.05;;
77955;SDS011;67152;36.266;32.294;2024-01-10T01:40:58;5.97;;;1.15;;
77955;SDS011;67152;36.266;32.294;2024-01-10T01:43:25;6.07;;;1.17;;
77955;SDS011;67152;36.266;32.294;2024-01-10T01:45:53;2.10;;;0.50;;
77955;SDS011;67152;36.266;32.294;2024-01-10T01:48:21;3.92;;;1.02;;
77955;SDS011;67152;36.266;32.294;2024-01-10T01:50:52;10.40;;;2.38;;
77955;SDS011;67152;36.266;32.294;2024-01-10T01:53:21;12.18;;;2.13;;
77955;SDS011;67152;36.266;32.294;2024-01-10T01:55:49;12.73;;;1.85;;
77955;SDS011;67152;36.266;32.294;2024-01-10T01:58:16;5.15;;;1.40;;
77955;SDS011;67152;36.266;32.294;2024-01-10T02:00:42;11.38;;;1.85;;
77955;SDS011;67152;36.266;32.294;2024-01-10T02:03:09;8.15;;;1.23;;
77955;SDS011;67152;36.266;32.294;2024-01-10T02:05:36;9.52;;;1.20;;
77955;SDS011;67152;36.266;32.294;2024-01-10T02:08:03;5.93;;;1.25;;
77955;SDS011;67152;36.266;32.294;2024-01-10T02:10:29;8.73;;;1.45;;
77955;SDS011;67152;36.266;32.294;2024-01-10T02:12:56;10.45;;;1.65;;
77955;SDS011;67152;36.266;32.294;2024-01-10T02:15:23;14.57;;;2.03;;
77955;SDS011;67152;36.266;32.294;2024-01-10T02:17:49;16.13;;;2.53;;
77955;SDS011;67152;36.266;32.294;2024-01-10T02:20:16;8.60;;;2.13;;
77955;SDS011;67152;36.266;32.294;2024-01-10T02:22:43;11.52;;;2.25;;
77955;SDS011;67152;36.266;32.294;2024-01-10T02:25:12;12.93;;;2.90;;
77955;SDS011;67152;36.266;32.294;2024-01-10T02:27:39;5.60;;;1.92;;
77955;SDS011;67152;36.266;32.294;2024-01-10T02:30:07;6.85;;;1.85;;
77955;SDS011;67152;36.266;32.294;2024-01-10T02:35:00;4.55;;;1.40;;
77955;SDS011;67152;36.266;32.294;2024-01-10T02:37:27;8.98;;;2.33;;
77955;SDS011;67152;36.266;32.294;2024-01-10T02:39:53;6.05;;;2.22;;
77955;SDS011;67152;36.266;32.294;2024-01-10T02:42:20;5.13;;;1.15;;
77955;SDS011;67152;36.266;32.294;2024-01-10T02:44:46;17.02;;;2.88;;
77955;SDS011;67152;36.266;32.294;2024-01-10T02:47:12;14.10;;;2.75;;
77955;SDS011;67152;36.266;32.294;2024-01-10T02:49:39;9.48;;;1.73;;
77955;SDS011;67152;36.266;32.294;2024-01-10T02:52:05;6.88;;;1.25;;
77955;SDS011;67152;36.266;32.294;2024-01-10T02:54:31;7.35;;;1.20;;
77955;SDS011;67152;36.266;32.294;2024-01-10T02:56:58;11.27;;;2.00;;
77955;SDS011;67152;36.266;32.294;2024-01-10T02:59:24;9.50;;;2.22;;
77955;SDS011;67152;36.266;32.294;2024-01-10T03:01:50;9.90;;;1.55;;
77955;SDS011;67152;36.266;32.294;2024-01-10T03:04:17;10.48;;;1.55;;
77955;SDS011;67152;36.266;32.294;2024-01-10T03:06:43;7.70;;;2.17;;
77955;SDS011;67152;36.266;32.294;2024-01-10T03:09:09;5.38;;;1.50;;
77955;SDS011;67152;36.266;32.294;2024-01-10T03:11:36;11.75;;;1.55;;
77955;SDS011;67152;36.266;32.294;2024-01-10T03:14:03;6.85;;;1.30;;
77955;SDS011;67152;36.266;32.294;2024-01-10T03:16:33;8.68;;;1.95;;
77955;SDS011;67152;36.266;32.294;2024-01-10T03:18:59;10.88;;;2.00;;
77955;SDS011;67152;36.266;32.294;2024-01-10T03:21:26;13.32;;;2.10;;
77955;SDS011;67152;36.266;32.294;2024-01-10T03:23:55;12.02;;;2.17;;
77955;SDS011;67152;36.266;32.294;2024-01-10T03:26:26;9.65;;;1.77;;
77955;SDS011;67152;36.266;32.294;2024-01-10T03:28:53;14.40;;;1.42;;
77955;SDS011;67152;36.266;32.294;2024-01-10T03:31:20;5.70;;;1.47;;
77955;SDS011;67152;36.266;32.294;2024-01-10T03:33:46;6.38;;;1.30;;
77955;SDS011;67152;36.266;32.294;2024-01-10T03:36:16;12.07;;;1.20;;
77955;SDS011;67152;36.266;32.294;2024-01-10T03:38:43;7.10;;;1.10;;
77955;SDS011;67152;36.266;32.294;2024-01-10T03:41:19;8.57;;;1.37;;
77955;SDS011;67152;36.266;32.294;2024-01-10T03:43:46;4.57;;;1.00;;
77955;SDS011;67152;36.266;32.294;2024-01-10T03:46:12;10.90;;;1.45;;
77955;SDS011;67152;36.266;32.294;2024-01-10T03:48:39;7.72;;;1.88;;
77955;SDS011;67152;36.266;32.294;2024-01-10T03:51:13;8.68;;;1.65;;
77955;SDS011;67152;36.266;32.294;2024-01-10T03:53:43;10.95;;;1.70;;
77955;SDS011;67152;36.266;32.294;2024-01-10T03:56:10;9.82;;;2.10;;
77955;SDS011;67152;36.266;32.294;2024-01-10T03:58:37;8.27;;;1.65;;
77955;SDS011;67152;36.266;32.294;2024-01-10T04:01:05;3.65;;;0.82;;
77955;SDS011;67152;36.266;32.294;2024-01-10T04:03:32;13.50;;;1.65;;
77955;SDS011;67152;36.266;32.294;2024-01-10T04:05:58;4.05;;;0.90;;
77955;SDS011;67152;36.266;32.294;2024-01-10T04:08:25;9.18;;;1.90;;
77955;SDS011;67152;36.266;32.294;2024-01-10T04:10:51;14.80;;;2.50;;
77955;SDS011;67152;36.266;32.294;2024-01-10T04:13:17;9.52;;;2.30;;
77955;SDS011;67152;36.266;32.294;2024-01-10T04:15:43;12.52;;;3.78;;
77955;SDS011;67152;36.266;32.294;2024-01-10T04:18:10;10.55;;;2.80;;
77955;SDS011;67152;36.266;32.294;2024-01-10T04:20:36;11.73;;;2.78;;
77955;SDS011;67152;36.266;32.294;2024-01-10T04:23:02;12.32;;;2.97;;
77955;SDS011;67152;36.266;32.294;2024-01-10T04:25:29;12.75;;;3.28;;
77955;SDS011;67152;36.266;32.294;2024-01-10T04:27:56;13.75;;;3.17;;
77955;SDS011;67152;36.266;32.294;2024-01-10T04:30:23;13.43;;;1.90;;
77955;SDS011;67152;36.266;32.294;2024-01-10T04:32:49;4.60;;;1.20;;
77955;SDS011;67152;36.266;32.294;2024-01-10T04:35:15;12.27;;;2.85;;
77955;SDS011;67152;36.266;32.294;2024-01-10T04:37:42;7.43;;;2.90;;
77955;SDS011;67152;36.266;32.294;2024-01-10T04:40:08;11.60;;;2.75;;
77955;SDS011;67152;36.266;32.294;2024-01-10T04:42:35;10.43;;;2.53;;
77955;SDS011;67152;36.266;32.294;2024-01-10T04:45:01;7.82;;;2.75;;
77955;SDS011;67152;36.266;32.294;2024-01-10T04:47:29;16.98;;;3.33;;
77955;SDS011;67152;36.266;32.294;2024-01-10T04:49:56;11.30;;;3.00;;
77955;SDS011;67152;36.266;32.294;2024-01-10T04:52:22;10.05;;;3.15;;
77955;SDS011;67152;36.266;32.294;2024-01-10T04:54:48;9.18;;;2.85;;
77955;SDS011;67152;36.266;32.294;2024-01-10T04:57:15;11.23;;;2.95;;
77955;SDS011;67152;36.266;32.294;2024-01-10T04:59:41;9.85;;;2.25;;
77955;SDS011;67152;36.266;32.294;2024-01-10T05:02:08;6.72;;;2.20;;
77955;SDS011;67152;36.266;32.294;2024-01-10T05:04:34;10.57;;;3.95;;
77955;SDS011;67152;36.266;32.294;2024-01-10T05:07:00;11.73;;;3.50;;
77955;SDS011;67152;36.266;32.294;2024-01-10T05:09:27;15.60;;;5.05;;
77955;SDS011;67152;36.266;32.294;2024-01-10T05:11:53;7.72;;;2.95;;
77955;SDS011;67152;36.266;32.294;2024-01-10T05:14:20;8.77;;;4.63;;
77955;SDS011;67152;36.266;32.294;2024-01-10T05:16:47;12.35;;;3.05;;
77955;SDS011;67152;36.266;32.294;2024-01-10T05:19:13;10.80;;;4.55;;
77955;SDS011;67152;36.266;32.294;2024-01-10T05:21:39;8.95;;;3.15;;
77955;SDS011;67152;36.266;32.294;2024-01-10T05:24:06;14.18;;;3.35;;
77955;SDS011;67152;36.266;32.294;2024-01-10T05:26:32;7.50;;;3.45;;
77955;SDS011;67152;36.266;32.294;2024-01-10T05:28:59;14.13;;;5.28;;
77955;SDS011;67152;36.266;32.294;2024-01-10T05:31:25;13.73;;;4.57;;
77955;SDS011;67152;36.266;32.294;2024-01-10T05:33:51;15.30;;;5.32;;
77955;SDS011;67152;36.266;32.294;2024-01-10T05:36:21;13.57;;;5.47;;
77955;SDS011;67152;36.266;32.294;2024-01-10T05:38:48;11.52;;;4.47;;
77955;SDS011;67152;36.266;32.294;2024-01-10T05:41:14;19.20;;;3.72;;
77955;SDS011;67152;36.266;32.294;2024-01-10T05:43:41;9.00;;;2.75;;
77955;SDS011;67152;36.266;32.294;2024-01-10T05:46:07;9.95;;;2.60;;
77955;SDS011;67152;36.266;32.294;2024-01-10T05:48:38;12.65;;;3.42;;
77955;SDS011;67152;36.266;32.294;2024-01-10T05:51:04;6.97;;;2.45;;
77955;SDS011;67152;36.266;32.294;2024-01-10T05:53:31;4.93;;;2.08;;
77955;SDS011;67152;36.266;32.294;2024-01-10T05:55:58;12.32;;;3.55;;
77955;SDS011;67152;36.266;32.294;2024-01-10T05:58:24;8.40;;;3.53;;
77955;SDS011;67152;36.266;32.294;2024-01-10T06:00:52;11.38;;;3.10;;
77955;SDS011;67152;36.266;32.294;2024-01-10T06:03:18;12.50;;;3.78;;
77955;SDS011;67152;36.266;32.294;2024-01-10T06:05:44;9.88;;;3.35;;
77955;SDS011;67152;36.266;32.294;2024-01-10T06:08:11;13.25;;;3.40;;
77955;SDS011;67152;36.266;32.294;2024-01-10T06:10:39;10.77;;;3.60;;
77955;SDS011;67152;36.266;32.294;2024-01-10T06:13:06;8.65;;;3.78;;
77955;SDS011;67152;36.266;32.294;2024-01-10T06:15:32;6.25;;;1.85;;
77955;SDS011;67152;36.266;32.294;2024-01-10T06:17:59;10.00;;;2.25;;
77955;SDS011;67152;36.266;32.294;2024-01-10T06:20:26;5.40;;;1.55;;
77955;SDS011;67152;36.266;32.294;2024-01-10T06:22:52;4.53;;;1.60;;
77955;SDS011;67152;36.266;32.294;2024-01-10T06:25:20;6.20;;;2.10;;
77955;SDS011;67152;36.266;32.294;2024-01-10T06:27:46;8.75;;;2.28;;
77955;SDS011;67152;36.266;32.294;2024-01-10T06:30:13;5.20;;;2.08;;
77955;SDS011;67152;36.266;32.294;2024-01-10T06:32:39;4.30;;;2.30;;
77955;SDS011;67152;36.266;32.294;2024-01-10T06:35:06;11.05;;;2.97;;
77955;SDS011;67152;36.266;32.294;2024-01-10T06:37:35;8.82;;;3.58;;
77955;SDS011;67152;36.266;32.294;2024-01-10T06:40:01;7.60;;;2.78;;
77955;SDS011;67152;36.266;32.294;2024-01-10T06:42:29;11.45;;;5.90;;
77955;SDS011;67152;36.266;32.294;2024-01-10T06:44:56;13.27;;;6.70;;
77955;SDS011;67152;36.266;32.294;2024-01-10T06:47:22;15.05;;;7.43;;
77955;SDS011;67152;36.266;32.294;2024-01-10T06:49:49;12.70;;;5.63;;
77955;SDS011;67152;36.266;32.294;2024-01-10T06:52:15;8.45;;;3.60;;
77955;SDS011;67152;36.266;32.294;2024-01-10T06:54:42;6.53;;;3.03;;
77955;SDS011;67152;36.266;32.294;2024-01-10T06:57:08;7.13;;;3.05;;
77955;SDS011;67152;36.266;32.294;2024-01-10T06:59:35;10.88;;;3.55;;
77955;SDS011;67152;36.266;32.294;2024-01-10T07:02:01;11.68;;;4.25;;
77955;SDS011;67152;36.266;32.294;2024-01-10T07:04:27;5.80;;;3.05;;
77955;SDS011;67152;36.266;32.294;2024-01-10T07:06:54;6.30;;;2.92;;
77955;SDS011;67152;36.266;32.294;2024-01-10T07:09:20;7.45;;;3.05;;
77955;SDS011;67152;36.266;32.294;2024-01-10T07:11:47;7.45;;;3.00;;
77955;SDS011;67152;36.266;32.294;2024-01-10T07:14:16;6.80;;;2.70;;
77955;SDS011;67152;36.266;32.294;2024-01-10T07:16:42;5.75;;;2.47;;
77955;SDS011;67152;36.266;32.294;2024-01-10T07:19:11;5.97;;;3.28;;
77955;SDS011;67152;36.266;32.294;2024-01-10T07:21:41;20.10;;;8.43;;
77955;SDS011;67152;36.266;32.294;2024-01-10T07:24:08;16.43;;;6.60;;
77955;SDS011;67152;36.266;32.294;2024-01-10T07:26:38;23.90;;;11.98;;
77955;SDS011;67152;36.266;32.294;2024-01-10T07:29:05;16.27;;;9.15;;
77955;SDS011;67152;36.266;32.294;2024-01-10T07:31:34;18.90;;;9.70;;
77955;SDS011;67152;36.266;32.294;2024-01-10T07:34:01;13.43;;;7.05;;
77955;SDS011;67152;36.266;32.294;2024-01-10T07:36:31;15.50;;;7.43;;
77955;SDS011;67152;36.266;32.294;2024-01-10T07:39:02;22.67;;;11.82;;
77955;SDS011;67152;36.266;32.294;2024-01-10T07:41:28;17.40;;;11.07;;
77955;SDS011;67152;36.266;32.294;2024-01-10T07:43:54;13.43;;;8.57;;
77955;SDS011;67152;36.266;32.294;2024-01-10T07:46:21;18.85;;;9.20;;
77955;SDS011;67152;36.266;32.294;2024-01-10T07:48:48;15.43;;;7.53;;
77955;SDS011;67152;36.266;32.294;2024-01-10T07:51:15;11.70;;;4.65;;
77955;SDS011;67152;36.266;32.294;2024-01-10T07:53:41;8.13;;;4.43;;
77955;SDS011;67152;36.266;32.294;2024-01-10T07:56:08;8.80;;;3.90;;
77955;SDS011;67152;36.266;32.294;2024-01-10T07:58:34;12.40;;;3.83;;
77955;SDS011;67152;36.266;32.294;2024-01-10T08:01:00;9.05;;;2.83;;
77955;SDS011;67152;36.266;32.294;2024-01-10T08:03:27;8.05;;;2.45;;
77955;SDS011;67152;36.266;32.294;2024-01-10T08:05:53;7.18;;;3.22;;
77955;SDS011;67152;36.266;32.294;2024-01-10T08:08:19;8.13;;;3.40;;
77955;SDS011;67152;36.266;32.294;2024-01-10T08:10:46;6.60;;;3.60;;
77955;SDS011;67152;36.266;32.294;2024-01-10T08:13:12;5.53;;;2.85;;
77955;SDS011;67152;36.266;32.294;2024-01-10T08:15:38;6.72;;;3.33;;
77955;SDS011;67152;36.266;32.294;2024-01-10T08:18:05;8.15;;;2.80;;
77955;SDS011;67152;36.266;32.294;2024-01-10T08:20:33;5.00;;;2.95;;
77955;SDS011;67152;36.266;32.294;2024-01-10T08:22:59;4.15;;;1.98;;
77955;SDS011;67152;36.266;32.294;2024-01-10T08:25:26;6.63;;;2.83;;
77955;SDS011;67152;36.266;32.294;2024-01-10T08:27:52;7.53;;;2.90;;
77955;SDS011;67152;36.266;32.294;2024-01-10T08:30:19;6.40;;;3.47;;
77955;SDS011;67152;36.266;32.294;2024-01-10T08:35:14;6.95;;;2.70;;
77955;SDS011;67152;36.266;32.294;2024-01-10T08:37:41;6.90;;;3.00;;
77955;SDS011;67152;36.266;32.294;2024-01-10T08:40:12;4.82;;;2.30;;
77955;SDS011;67152;36.266;32.294;2024-01-10T08:42:41;7.22;;;2.30;;
77955;SDS011;67152;36.266;32.294;2024-01-10T08:45:08;7.55;;;1.95;;
77955;SDS011;67152;36.266;32.294;2024-01-10T08:47:37;6.32;;;2.50;;
77955;SDS011;67152;36.266;32.294;2024-01-10T08:50:03;4.55;;;2.30;;
77955;SDS011;67152;36.266;32.294;2024-01-10T08:52:34;5.28;;;2.38;;
77955;SDS011;67152;36.266;32.294;2024-01-10T08:55:04;8.32;;;3.53;;
77955;SDS011;67152;36.266;32.294;2024-01-10T08:57:33;7.75;;;3.45;;
77955;SDS011;67152;36.266;32.294;2024-01-10T09:00:00;4.45;;;2.08;;
77955;SDS011;67152;36.266;32.294;2024-01-10T09:02:26;3.53;;;1.77;;
77955;SDS011;67152;36.266;32.294;2024-01-10T09:04:53;8.10;;;4.20;;
77955;SDS011;67152;36.266;32.294;2024-01-10T09:07:20;7.68;;;4.13;;
77955;SDS011;67152;36.266;32.294;2024-01-10T09:09:47;7.47;;;3.83;;
77955;SDS011;67152;36.266;32.294;2024-01-10T09:12:13;5.07;;;2.20;;
77955;SDS011;67152;36.266;32.294;2024-01-10T09:14:40;4.53;;;2.58;;
77955;SDS011;67152;36.266;32.294;2024-01-10T09:17:06;5.13;;;2.50;;
77955;SDS011;67152;36.266;32.294;2024-01-10T09:19:33;2.33;;;1.15;;
77955;SDS011;67152;36.266;32.294;2024-01-10T09:21:59;6.22;;;2.45;;
77955;SDS011;67152;36.266;32.294;2024-01-10T09:24:26;6.22;;;2.50;;
77955;SDS011;67152;36.266;32.294;2024-01-10T09:26:52;6.60;;;2.30;;
77955;SDS011;67152;36.266;32.294;2024-01-10T09:29:23;2.70;;;1.33;;
77955;SDS011;67152;36.266;32.294;2024-01-10T09:31:51;8.25;;;2.70;;
77955;SDS011;67152;36.266;32.294;2024-01-10T09:34:17;8.18;;;2.35;;
77955;SDS011;67152;36.266;32.294;2024-01-10T09:39:40;6.15;;;3.10;;
77955;SDS011;67152;36.266;32.294;2024-01-10T09:42:07;5.10;;;2.95;;
77955;SDS011;67152;36.266;32.294;2024-01-10T09:44:33;7.32;;;3.30;;
77955;SDS011;67152;36.266;32.294;2024-01-10T09:46:59;6.80;;;3.13;;
77955;SDS011;67152;36.266;32.294;2024-01-10T09:49:27;9.73;;;3.72;;
77955;SDS011;67152;36.266;32.294;2024-01-10T09:51:57;7.47;;;1.98;;
77955;SDS011;67152;36.266;32.294;2024-01-10T09:54:29;2.17;;;1.40;;
77955;SDS011;67152;36.266;32.294;2024-01-10T09:56:58;4.10;;;2.05;;
77955;SDS011;67152;36.266;32.294;2024-01-10T09:59:25;2.47;;;1.23;;
77955;SDS011;67152;36.266;32.294;2024-01-10T10:01:51;1.35;;;0.80;;
77955;SDS011;67152;36.266;32.294;2024-01-10T10:06:45;4.40;;;1.95;;
77955;SDS011;67152;36.266;32.294;2024-01-10T10:09:12;6.22;;;2.17;;
77955;SDS011;67152;36.266;32.294;2024-01-10T10:11:38;7.75;;;1.67;;
77955;SDS011;67152;36.266;32.294;2024-01-10T10:14:14;2.10;;;0.80;;
77955;SDS011;67152;36.266;32.294;2024-01-10T10:16:43;9.57;;;1.10;;
77955;SDS011;67152;36.266;32.294;2024-01-10T10:19:11;1.83;;;1.00;;
77955;SDS011;67152;36.266;32.294;2024-01-10T10:21:39;7.55;;;1.05;;
77955;SDS011;67152;36.266;32.294;2024-01-10T10:24:06;2.25;;;1.10;;
77955;SDS011;67152;36.266;32.294;2024-01-10T10:26:35;2.40;;;1.00;;
77955;SDS011;67152;36.266;32.294;2024-01-10T10:29:02;4.15;;;1.15;;
77955;SDS011;67152;36.266;32.294;2024-01-10T10:33:57;2.42;;;1.20;;
77955;SDS011;67152;36.266;32.294;2024-01-10T10:36:26;1.83;;;0.90;;
77955;SDS011;67152;36.266;32.294;2024-01-10T10:38:52;1.23;;;0.80;;
77955;SDS011;67152;36.266;32.294;2024-01-10T10:41:19;1.30;;;0.90;;
77955;SDS011;67152;36.266;32.294;2024-01-10T10:43:46;1.87;;;0.73;;
77955;SDS011;67152;36.266;32.294;2024-01-10T10:46:13;2.05;;;0.85;;
77955;SDS011;67152;36.266;32.294;2024-01-10T10:48:40;3.70;;;0.90;;
77955;SDS011;67152;36.266;32.294;2024-01-10T10:51:09;3.00;;;0.85;;
77955;SDS011;67152;36.266;32.294;2024-01-10T10:53:36;3.38;;;0.90;;
77955;SDS011;67152;36.266;32.294;2024-01-10T10:56:04;1.77;;;0.82;;
77955;SDS011;67152;36.266;32.294;2024-01-10T10:58:38;1.25;;;0.80;;
77955;SDS011;67152;36.266;32.294;2024-01-10T11:01:06;2.33;;;1.02;;
77955;SDS011;67152;36.266;32.294;2024-01-10T11:03:34;2.58;;;1.00;;
77955;SDS011;67152;36.266;32.294;2024-01-10T11:06:02;4.20;;;2.38;;
77955;SDS011;67152;36.266;32.294;2024-01-10T11:08:34;4.80;;;1.50;;
77955;SDS011;67152;36.266;32.294;2024-01-10T11:11:33;2.63;;;1.05;;
77955;SDS011;67152;36.266;32.294;2024-01-10T11:14:18;7.65;;;2.33;;
77955;SDS011;67152;36.266;32.294;2024-01-10T11:25:06;3.05;;;1.25;;
77955;SDS011;67152;36.266;32.294;2024-01-10T11:27:33;2.67;;;1.50;;
77955;SDS011;67152;36.266;32.294;2024-01-10T11:30:00;2.50;;;1.50;;
77955;SDS011;67152;36.266;32.294;2024-01-10T11:32:26;3.80;;;1.90;;
77955;SDS011;67152;36.266;32.294;2024-01-10T11:37:19;4.78;;;1.85;;
77955;SDS011;67152;36.266;32.294;2024-01-10T11:39:46;4.93;;;1.77;;
77955;SDS011;67152;36.266;32.294;2024-01-10T11:42:21;5.75;;;1.58;;
77955;SDS011;67152;36.266;32.294;2024-01-10T11:44:51;3.08;;;1.42;;
77955;SDS011;67152;36.266;32.294;2024-01-10T11:47:18;3.20;;;1.50;;
77955;SDS011;67152;36.266;32.294;2024-01-10T11:49:55;3.75;;;1.88;;
77955;SDS011;67152;36.266;32.294;2024-01-10T11:52:23;3.72;;;1.48;;
77955;SDS011;67152;36.266;32.294;2024-01-10T11:54:49;3.70;;;1.63;;
77955;SDS011;67152;36.266;32.294;2024-01-10T11:57:29;5.03;;;1.70;;
77955;SDS011;67152;36.266;32.294;2024-01-10T11:59:57;8.13;;;1.65;;
77955;SDS011;67152;36.266;32.294;2024-01-10T12:02:29;3.40;;;1.73;;
77955;SDS011;67152;36.266;32.294;2024-01-10T12:04:55;3.33;;;1.50;;
77955;SDS011;67152;36.266;32.294;2024-01-10T12:07:22;5.07;;;1.60;;
77955;SDS011;67152;36.266;32.294;2024-01-10T12:09:49;3.17;;;1.40;;
77955;SDS011;67152;36.266;32.294;2024-01-10T12:12:15;5.60;;;2.00;;
77955;SDS011;67152;36.266;32.294;2024-01-10T12:14:42;10.77;;;2.65;;
77955;SDS011;67152;36.266;32.294;2024-01-10T12:17:10;16.70;;;5.20;;
77955;SDS011;67152;36.266;32.294;2024-01-10T12:19:36;12.90;;;5.50;;
77955;SDS011;67152;36.266;32.294;2024-01-10T12:22:03;12.07;;;4.50;;
77955;SDS011;67152;36.266;32.294;2024-01-10T12:24:30;14.00;;;5.15;;
77955;SDS011;67152;36.266;32.294;2024-01-10T12:26:57;9.90;;;4.07;;
77955;SDS011;67152;36.266;32.294;2024-01-10T12:29:24;12.15;;;5.38;;
77955;SDS011;67152;36.266;32.294;2024-01-10T12:31:51;15.88;;;6.78;;
77955;SDS011;67152;36.266;32.294;2024-01-10T12:34:19;12.02;;;6.50;;
77955;SDS011;67152;36.266;32.294;2024-01-10T12:36:47;12.60;;;6.43;;
77955;SDS011;67152;36.266;32.294;2024-01-10T12:39:14;12.35;;;6.60;;
77955;SDS011;67152;36.266;32.294;2024-01-10T12:41:40;16.20;;;5.53;;
77955;SDS011;67152;36.266;32.294;2024-01-10T12:44:07;19.85;;;6.25;;
77955;SDS011;67152;36.266;32.294;2024-01-10T12:46:33;13.75;;;5.38;;
77955;SDS011;67152;36.266;32.294;2024-01-10T12:49:00;11.15;;;6.15;;
77955;SDS011;67152;36.266;32.294;2024-01-10T12:51:31;11.68;;;6.45;;
77955;SDS011;67152;36.266;32.294;2024-01-10T12:53:59;9.57;;;3.97;;
77955;SDS011;67152;36.266;32.294;2024-01-10T12:56:26;8.67;;;4.70;;
77955;SDS011;67152;36.266;32.294;2024-01-10T12:58:53;4.22;;;1.50;;
77955;SDS011;67152;36.266;32.294;2024-01-10T13:01:23;7.85;;;0.93;;
77955;SDS011;67152;36.266;32.294;2024-01-10T13:03:50;7.28;;;1.05;;
77955;SDS011;67152;36.266;32.294;2024-01-10T13:06:17;8.25;;;1.15;;
77955;SDS011;67152;36.266;32.294;2024-01-10T13:08:44;3.97;;;0.90;;
77955;SDS011;67152;36.266;32.294;2024-01-10T13:11:11;5.13;;;2.00;;
77955;SDS011;67152;36.266;32.294;2024-01-10T13:13:40;5.55;;;0.85;;
77955;SDS011;67152;36.266;32.294;2024-01-10T13:16:07;6.30;;;2.15;;
77955;SDS011;67152;36.266;32.294;2024-01-10T13:18:36;6.93;;;2.92;;
77955;SDS011;67152;36.266;32.294;2024-01-10T13:21:03;8.30;;;3.25;;
77955;SDS011;67152;36.266;32.294;2024-01-10T13:23:30;8.18;;;3.00;;
77955;SDS011;67152;36.266;32.294;2024-01-10T13:25:56;10.00;;;6.03;;
77955;SDS011;67152;36.266;32.294;2024-01-10T13:28:23;21.63;;;11.05;;
77955;SDS011;67152;36.266;32.294;2024-01-10T13:30:49;13.32;;;6.47;;
77955;SDS011;67152;36.266;32.294;2024-01-10T13:33:16;10.38;;;2.45;;
77955;SDS011;67152;36.266;32.294;2024-01-10T13:35:44;12.77;;;2.10;;
77955;SDS011;67152;36.266;32.294;2024-01-10T13:38:10;7.07;;;2.17;;
77955;SDS011;67152;36.266;32.294;2024-01-10T13:40:37;6.90;;;2.55;;
77955;SDS011;67152;36.266;32.294;2024-01-10T13:43:04;10.70;;;5.10;;
77955;SDS011;67152;36.266;32.294;2024-01-10T13:45:31;15.27;;;4.05;;
77955;SDS011;67152;36.266;32.294;2024-01-10T13:47:57;6.53;;;3.30;;
77955;SDS011;67152;36.266;32.294;2024-01-10T13:50:24;7.45;;;2.90;;
77955;SDS011;67152;36.266;32.294;2024-01-10T13:52:51;18.60;;;9.02;;
77955;SDS011;67152;36.266;32.294;2024-01-10T13:55:17;20.20;;;11.35;;
77955;SDS011;67152;36.266;32.294;2024-01-10T13:57:44;22.37;;;13.00;;
77955;SDS011;67152;36.266;32.294;2024-01-10T14:00:10;22.83;;;12.48;;
77955;SDS011;67152;36.266;32.294;2024-01-10T14:02:57;17.47;;;6.93;;
77955;SDS011;67152;36.266;32.294;2024-01-10T14:05:26;20.30;;;9.70;;
77955;SDS011;67152;36.266;32.294;2024-01-10T14:07:53;20.83;;;10.27;;
77955;SDS011;67152;36.266;32.294;2024-01-10T14:10:20;23.37;;;10.17;;
77955;SDS011;67152;36.266;32.294;2024-01-10T14:12:46;16.33;;;7.65;;
77955;SDS011;67152;36.266;32.294;2024-01-10T14:15:13;13.47;;;6.40;;
77955;SDS011;67152;36.266;32.294;2024-01-10T14:17:40;11.88;;;5.50;;
77955;SDS011;67152;36.266;32.294;2024-01-10T14:20:07;12.15;;;4.30;;
77955;SDS011;67152;36.266;32.294;2024-01-10T14:22:35;14.80;;;6.88;;
77955;SDS011;67152;36.266;32.294;2024-01-10T14:27:28;10.57;;;3.70;;
77955;SDS011;67152;36.266;32.294;2024-01-10T14:29:55;10.00;;;3.17;;
77955;SDS011;67152;36.266;32.294;2024-01-10T14:32:21;6.18;;;3.30;;
77955;SDS011;67152;36.266;32.294;2024-01-10T14:34:48;5.90;;;3.10;;
77955;SDS011;67152;36.266;32.294;2024-01-10T14:37:14;14.80;;;4.47;;
77955;SDS011;67152;36.266;32.294;2024-01-10T14:39:41;7.65;;;3.00;;
77955;SDS011;67152;36.266;32.294;2024-01-10T14:42:07;14.23;;;6.05;;
77955;SDS011;67152;36.266;32.294;2024-01-10T14:44:34;12.32;;;3.38;;
77955;SDS011;67152;36.266;32.294;2024-01-10T14:47:01;7.03;;;1.92;;
77955;SDS011;67152;36.266;32.294;2024-01-10T14:49:28;9.02;;;1.92;;
77955;SDS011;67152;36.266;32.294;2024-01-10T14:54:22;12.63;;;3.15;;
77955;SDS011;67152;36.266;32.294;2024-01-10T14:56:49;14.27;;;3.63;;
77955;SDS011;67152;36.266;32.294;2024-01-10T14:59:16;16.63;;;6.70;;
77955;SDS011;67152;36.266;32.294;2024-01-10T15:01:46;18.13;;;8.73;;